createdAt,value
2023-04-28T00:05:44.962Z,21.1
2023-04-28T00:11:36.526Z,21.1
2023-04-28T00:17:28.568Z,21
2023-04-28T00:23:20.230Z,21
2023-04-28T00:29:16.268Z,20.9
2023-04-28T00:35:07.762Z,20.9
2023-04-28T00:40:59.518Z,20.9
2023-04-28T00:46:35.533Z,20.9
2023-04-28T00:52:11.288Z,20.9
2023-04-28T00:58:02.314Z,20.8
2023-04-28T01:03:24.283Z,20.8
2023-04-28T01:09:17.241Z,20.8
2023-04-28T01:15:09.053Z,20.8
2023-04-28T01:21:00.631Z,20.8
2023-04-28T01:26:51.973Z,20.8
2023-04-28T01:32:43.171Z,20.8
2023-04-28T01:38:34.611Z,20.7
2023-04-28T01:44:26.173Z,20.8
2023-04-28T01:50:18.252Z,20.7
2023-04-28T01:56:10.285Z,20.7
2023-04-28T02:02:03.061Z,20.6
2023-04-28T02:07:55.319Z,20.6
2023-04-28T02:13:31.310Z,20.6
2023-04-28T02:19:23.921Z,20.6
2023-04-28T02:25:01.862Z,20.6
2023-04-28T02:30:38.081Z,20.6
2023-04-28T02:36:29.713Z,20.6
2023-04-28T02:42:20.707Z,20.6
2023-04-28T02:47:57.147Z,20.6
2023-04-28T02:53:48.691Z,20.6
2023-04-28T02:59:40.796Z,20.6
2023-04-28T03:05:18.998Z,20.6
2023-04-28T03:10:55.205Z,20.5
2023-04-28T03:16:16.927Z,20.5
2023-04-28T03:22:08.436Z,20.5
2023-04-28T03:27:53.702Z,20.5
2023-04-28T03:33:29.361Z,20.5
2023-04-28T03:39:06.190Z,20.4
2023-04-28T03:44:59.598Z,20.4
2023-04-28T03:50:50.994Z,20.4
2023-04-28T03:56:42.349Z,20.4
2023-04-28T04:02:33.617Z,20.4
2023-04-28T04:08:13.286Z,20.4
2023-04-28T04:14:05.470Z,20.4
2023-04-28T04:19:58.238Z,20.4
2023-04-28T04:25:49.508Z,20.4
2023-04-28T04:31:41.208Z,20.4
2023-04-28T04:37:33.020Z,20.4
2023-04-28T04:43:38.804Z,20.4
2023-04-28T04:49:33.489Z,20.4
2023-04-28T04:55:27.518Z,20.4
2023-04-28T05:01:18.926Z,20.4
2023-04-28T05:07:27.779Z,20.3
2023-04-28T05:13:22.019Z,20.3
2023-04-28T05:19:14.353Z,20.3
2023-04-28T05:25:06.549Z,20.4
2023-04-28T05:30:58.165Z,20.4
2023-04-28T05:36:50.164Z,20.4
2023-04-28T05:42:42.152Z,20.5
2023-04-28T05:48:46.158Z,20.5
2023-04-28T05:54:38.232Z,20.4
2023-04-28T06:00:37.898Z,20.4
2023-04-28T06:06:18.202Z,20.1
2023-04-28T06:11:53.879Z,20.1
2023-04-28T06:17:30.639Z,20.2
2023-04-28T06:23:06.796Z,20.3
2023-04-28T06:28:28.783Z,20.3
2023-04-28T06:34:05.308Z,20.4
2023-04-28T06:39:12.626Z,20.3
2023-04-28T06:44:35.240Z,20.4
2023-04-28T06:49:57.710Z,20.4
2023-04-28T06:55:24.191Z,20.4
2023-04-28T07:01:17.118Z,20.4
2023-04-28T07:07:11.692Z,20.4
2023-04-28T07:13:05.986Z,20.4
2023-04-28T07:18:57.600Z,20.4
2023-04-28T07:24:49.592Z,20.4
2023-04-28T07:30:58.715Z,20.4
2023-04-28T07:36:53.161Z,20.4
2023-04-28T07:42:47.000Z,20.4
2023-04-28T07:48:24.122Z,20.4
2023-04-28T07:54:15.607Z,20.4
2023-04-28T08:00:07.305Z,20.4
2023-04-28T08:06:03.181Z,20.4
2023-04-28T08:11:53.712Z,20.4
2023-04-28T08:17:31.062Z,20.4
2023-04-28T08:23:25.382Z,20.4
2023-04-28T08:29:03.987Z,20.4
2023-04-28T08:34:40.567Z,20.4
2023-04-28T08:40:19.421Z,20.4
2023-04-28T08:45:41.555Z,20.4
2023-04-28T08:51:18.373Z,20.4
2023-04-28T08:57:10.639Z,20.4
2023-04-28T09:02:32.289Z,20.4
2023-04-28T09:08:12.150Z,20.4
2023-04-28T09:13:35.137Z,20.4
2023-04-28T09:18:56.528Z,19.4
2023-04-28T09:25:06.465Z,19.7
2023-04-28T09:30:42.167Z,19.9
2023-04-28T09:36:04.301Z,20
2023-04-28T09:41:42.528Z,20
2023-04-28T09:47:19.979Z,19.9
2023-04-28T09:53:11.158Z,19.9
2023-04-28T09:59:03.045Z,20.1
2023-04-28T10:06:52.799Z,20
2023-04-28T10:12:44.394Z,19.9
2023-04-28T10:18:21.128Z,19.9
2023-04-28T10:24:12.076Z,20
2023-04-28T10:30:10.580Z,19.9
2023-04-28T10:36:10.126Z,19.9
2023-04-28T10:42:10.350Z,19.9
2023-04-28T10:48:07.446Z,19.9
2023-04-28T10:54:12.571Z,19.9
2023-04-28T11:00:15.908Z,19.8
2023-04-28T11:06:09.743Z,19.9
2023-04-28T11:12:01.572Z,19.8
2023-04-28T11:17:39.469Z,19.9
2023-04-28T11:23:30.997Z,20.1
2023-04-28T11:29:22.568Z,20.2
2023-04-28T11:35:14.018Z,20.1
2023-04-28T11:41:06.548Z,20
2023-04-28T11:47:05.668Z,20
2023-04-28T11:52:58.230Z,20.1
2023-04-28T11:58:49.710Z,20.1
2023-04-28T12:04:45.587Z,19.9
2023-04-28T12:10:39.751Z,19.9
2023-04-28T12:16:48.477Z,20.1
2023-04-28T12:22:41.354Z,20
2023-04-28T12:28:16.800Z,19.9
2023-04-28T12:34:10.088Z,19.9
2023-04-28T12:40:02.469Z,20.1
2023-04-28T12:45:55.571Z,19.9
2023-04-28T12:51:47.480Z,20.1
2023-04-28T12:57:24.008Z,20
2023-04-28T13:03:16.104Z,20
2023-04-28T13:09:09.676Z,20
2023-04-28T13:15:12.171Z,20
2023-04-28T13:21:04.091Z,19.9
2023-04-28T13:26:43.009Z,19.9
2023-04-28T13:32:19.821Z,20.1
2023-04-28T13:38:10.317Z,20
2023-04-28T13:44:03.456Z,20
2023-04-28T13:49:55.224Z,20.1
2023-04-28T13:55:46.077Z,20
2023-04-28T14:01:38.200Z,19.9
2023-04-28T14:07:28.469Z,19.9
2023-04-28T14:13:22.049Z,19.9
2023-04-28T14:19:25.032Z,19.8
2023-04-28T14:25:16.403Z,19.9
2023-04-28T14:31:08.080Z,20
2023-04-28T14:37:00.161Z,19.8
2023-04-28T14:42:37.080Z,19.8
2023-04-28T14:48:29.177Z,19.8
2023-04-28T14:54:20.736Z,19.9
2023-04-28T15:00:14.850Z,19.9
2023-04-28T15:06:08.736Z,20
2023-04-28T15:11:48.129Z,19.9
2023-04-28T15:17:40.748Z,19.8
2023-04-28T15:23:33.110Z,19.9
2023-04-28T15:29:25.425Z,19.9
2023-04-28T15:35:19.016Z,19.8
2023-04-28T15:41:13.973Z,19.9
2023-04-28T15:47:05.760Z,20
2023-04-28T15:52:58.320Z,20
2023-04-28T15:58:50.189Z,20
2023-04-28T16:04:43.956Z,20
2023-04-28T16:10:36.257Z,20
2023-04-28T16:16:28.910Z,19.8
2023-04-28T16:22:05.576Z,19.8
2023-04-28T16:27:59.350Z,19.8
2023-04-28T16:33:52.017Z,19.8
2023-04-28T16:39:44.467Z,19.9
2023-04-28T16:45:37.202Z,19.9
2023-04-28T16:51:30.212Z,19.9
2023-04-28T16:57:22.832Z,19.8
2023-04-28T17:03:15.432Z,19.8
2023-04-28T17:08:37.776Z,19.6
2023-04-28T17:14:32.132Z,19.7
2023-04-28T17:20:25.030Z,19.8
2023-04-28T17:26:17.013Z,19.9
2023-04-28T17:32:12.007Z,19.9
2023-04-28T17:38:04.300Z,19.9
2023-04-28T17:43:55.776Z,19.9
2023-04-28T17:49:48.357Z,19.9
2023-04-28T17:55:42.261Z,19.9
2023-04-28T18:01:34.001Z,19.9
2023-04-28T18:07:30.096Z,19.9
2023-04-28T18:13:25.171Z,19.9
2023-04-28T18:19:19.966Z,19.9
2023-04-28T18:25:11.816Z,19.9
2023-04-28T18:31:03.909Z,19.9
2023-04-28T18:36:59.207Z,20
2023-04-28T18:42:51.277Z,20
2023-04-28T18:48:46.916Z,20.1
2023-04-28T18:54:38.025Z,20.1
2023-04-28T19:00:30.235Z,20.1
2023-04-28T19:06:08.558Z,20.1
2023-04-28T19:12:05.095Z,20
2023-04-28T19:17:56.893Z,20.1
2023-04-28T19:23:49.005Z,20.1
2023-04-28T19:29:41.206Z,20.1
2023-04-28T19:35:34.076Z,20.1
2023-04-28T19:41:26.176Z,20.1
2023-04-28T19:47:19.227Z,20.1
2023-04-28T19:53:11.505Z,20.1
2023-04-28T19:58:33.563Z,20.1
2023-04-28T20:04:30.060Z,20.1
2023-04-28T20:10:08.900Z,20.1
2023-04-28T20:16:00.342Z,20
2023-04-28T20:21:52.449Z,20.1
2023-04-28T20:27:44.138Z,21.9
2023-04-28T20:33:37.360Z,24.5
2023-04-28T20:39:28.906Z,25
2023-04-28T20:45:20.622Z,23.9
2023-04-28T20:51:14.828Z,23.1
2023-04-28T20:57:07.937Z,22.9
2023-04-28T21:03:00.376Z,22.6
2023-04-28T21:08:53.714Z,23.7
2023-04-28T21:14:44.616Z,24.5
2023-04-28T21:20:36.492Z,24.1
2023-04-28T21:26:13.017Z,23.4
2023-04-28T21:32:04.206Z,23
2023-04-28T21:37:56.218Z,22.8
2023-04-28T21:43:32.201Z,22.8
2023-04-28T21:48:53.436Z,24.3
2023-04-28T21:54:44.872Z,25.1
2023-04-28T22:00:36.661Z,23.8
2023-04-28T22:06:15.135Z,23.3
2023-04-28T22:12:06.977Z,23.1
2023-04-28T22:18:14.767Z,22.9
2023-04-28T22:24:06.333Z,22.6
2023-04-28T22:29:42.146Z,23.9
2023-04-28T22:35:18.334Z,24.3
2023-04-28T22:40:54.527Z,23.5
2023-04-28T22:46:45.839Z,23.3
2023-04-28T22:52:37.263Z,23.1
2023-04-28T22:58:16.140Z,22.9
2023-04-28T23:04:09.343Z,22.8
2023-04-28T23:09:46.451Z,23.6
2023-04-28T23:15:37.735Z,24.8
2023-04-28T23:21:32.116Z,24.3
2023-04-28T23:27:08.158Z,23.5
2023-04-28T23:32:44.234Z,23
2023-04-28T23:38:20.531Z,22.8
2023-04-28T23:43:57.060Z,22.6
2023-04-28T23:49:48.682Z,22.4
2023-04-28T23:55:39.287Z,23.1
